CFAST PAVD-KMWH
Flight info
| Callsign | CFAST |
|---|---|
| Flight time | 2h 56m |
| Altitude | 41000 |
| Route | NAKED6 NAKED JOH J501 EEVER YZP J523 YZT Q902 VIXOR |
| Aircraft | C750/M-SBDE3FGHRWXY/S |
Departure
| Time | 2026-04-16 13:15 |
|---|---|
| Airport | Valdez Pioneer Field (PAVD) |
Arrival
| Time | 2026-04-16 16:12 |
|---|---|
| Airport | Grant County International Airport (KMWH) |
| Time | Latitude | Longitude | Altitude | Speed | Heading |
|---|---|---|---|---|---|
| 2026-04-16 12:57 | 61.13209 | -146.24223 | 90 ft | 0 kts | 347° |
| 2026-04-16 13:08 | 61.13212 | -146.24225 | 52 ft | 2 kts | 348° |
| 2026-04-16 13:09 | 61.13232 | -146.24231 | 106 ft | 5 kts | 353° |
| 2026-04-16 13:09 | 61.13240 | -146.24290 | 125 ft | 7 kts | 251° |
| 2026-04-16 13:09 | 61.13232 | -146.24403 | 88 ft | 10 kts | 262° |
| 2026-04-16 13:09 | 61.13218 | -146.24574 | 85 ft | 13 kts | 258° |
| 2026-04-16 13:10 | 61.13202 | -146.24738 | 81 ft | 12 kts | 260° |
| 2026-04-16 13:10 | 61.13184 | -146.24907 | 78 ft | 13 kts | 255° |
| 2026-04-16 13:10 | 61.13161 | -146.25092 | 133 ft | 12 kts | 270° |
| 2026-04-16 13:10 | 61.13158 | -146.25257 | 189 ft | 11 kts | 262° |
| 2026-04-16 13:11 | 61.13142 | -146.25426 | 215 ft | 13 kts | 256° |
| 2026-04-16 13:11 | 61.13122 | -146.25609 | 128 ft | 14 kts | 261° |
| 2026-04-16 13:11 | 61.13115 | -146.25823 | 168 ft | 16 kts | 275° |
| 2026-04-16 13:11 | 61.13127 | -146.26054 | 123 ft | 17 kts | 276° |
| 2026-04-16 13:12 | 61.13154 | -146.26213 | 170 ft | 9 kts | 326° |
| 2026-04-16 13:12 | 61.13197 | -146.26240 | 130 ft | 4 kts | 351° |
| 2026-04-16 13:12 | 61.13207 | -146.26244 | 109 ft | 0 kts | 350° |
| 2026-04-16 13:13 | 61.13221 | -146.26250 | 39 ft | 6 kts | 348° |
| 2026-04-16 13:13 | 61.13251 | -146.26264 | 45 ft | 4 kts | 346° |
| 2026-04-16 13:14 | 61.13288 | -146.26258 | 135 ft | 4 kts | 49° |
| 2026-04-16 13:14 | 61.13293 | -146.26217 | 33 ft | 0 kts | 82° |
| 2026-04-16 13:14 | 61.13327 | -146.25780 | 178 ft | 76 kts | 82° |
| 2026-04-16 13:15 | 61.13449 | -146.24147 | 111 ft | 141 kts | 82° |
| 2026-04-16 13:15 | 61.13557 | -146.22268 | 853 ft | 128 kts | 84° |
| 2026-04-16 13:15 | 61.13722 | -146.20343 | 1307 ft | 147 kts | 77° |
| 2026-04-16 13:15 | 61.13973 | -146.18062 | 1506 ft | 177 kts | 78° |
| 2026-04-16 13:16 | 61.14156 | -146.15361 | 1622 ft | 207 kts | 97° |
| 2026-04-16 13:16 | 61.13500 | -146.12800 | 2298 ft | 274 kts | 129° |
| 2026-04-16 13:16 | 61.13209 | -146.24223 | 90 ft | 0 kts | 347° |
| 2026-04-16 13:30 | 61.13220 | -146.24227 | 90 ft | 4 kts | 349° |
| 2026-04-16 13:30 | 61.13243 | -146.24277 | 90 ft | 8 kts | 271° |
| 2026-04-16 13:31 | 61.13230 | -146.24437 | 87 ft | 12 kts | 261° |
| 2026-04-16 13:31 | 61.13211 | -146.24625 | 82 ft | 14 kts | 259° |
| 2026-04-16 13:31 | 61.13189 | -146.24835 | 82 ft | 15 kts | 256° |
| 2026-04-16 13:31 | 61.13169 | -146.25050 | 88 ft | 12 kts | 261° |
| 2026-04-16 13:32 | 61.13155 | -146.25223 | 193 ft | 13 kts | 259° |
| 2026-04-16 13:32 | 61.13137 | -146.25417 | 65 ft | 14 kts | 258° |
| 2026-04-16 13:32 | 61.13122 | -146.25622 | 60 ft | 15 kts | 259° |
| 2026-04-16 13:32 | 61.13117 | -146.25851 | 116 ft | 17 kts | 277° |
| 2026-04-16 13:33 | 61.13131 | -146.26101 | 103 ft | 18 kts | 275° |
| 2026-04-16 13:33 | 61.13204 | -146.26247 | 221 ft | 14 kts | 350° |
| 2026-04-16 13:33 | 61.13284 | -146.26265 | 191 ft | 9 kts | 32° |
| 2026-04-16 13:33 | 61.13291 | -146.26234 | 95 ft | 0 kts | 78° |
| 2026-04-16 13:34 | 61.13292 | -146.26229 | 111 ft | 6 kts | 78° |
| 2026-04-16 13:35 | 61.13342 | -146.25575 | 252 ft | 94 kts | 82° |
| 2026-04-16 13:35 | 61.13469 | -146.23817 | 245 ft | 135 kts | 82° |
| 2026-04-16 13:35 | 61.13620 | -146.21827 | 802 ft | 144 kts | 80° |
| 2026-04-16 13:35 | 61.13611 | -146.19621 | 997 ft | 174 kts | 112° |
| 2026-04-16 13:36 | 61.12622 | -146.17913 | 1044 ft | 210 kts | 164° |
| 2026-04-16 13:36 | 61.11094 | -146.18330 | 1283 ft | 242 kts | 206° |
| 2026-04-16 13:36 | 61.10020 | -146.20966 | 1980 ft | 250 kts | 249° |
| 2026-04-16 13:36 | 61.09728 | -146.24486 | 2792 ft | 249 kts | 263° |
| 2026-04-16 13:37 | 61.09539 | -146.28076 | 3709 ft | 252 kts | 262° |
| 2026-04-16 13:37 | 61.09341 | -146.31688 | 4614 ft | 255 kts | 262° |
| 2026-04-16 13:37 | 61.09129 | -146.35348 | 5457 ft | 258 kts | 258° |
| 2026-04-16 13:37 | 61.08531 | -146.38828 | 6322 ft | 258 kts | 240° |
| 2026-04-16 13:38 | 61.07488 | -146.41821 | 7215 ft | 257 kts | 229° |
| 2026-04-16 13:38 | 61.06293 | -146.44552 | 8179 ft | 257 kts | 229° |
| 2026-04-16 13:38 | 61.05167 | -146.47361 | 9139 ft | 258 kts | 233° |
| 2026-04-16 13:38 | 61.04070 | -146.50302 | 10060 ft | 260 kts | 234° |
| 2026-04-16 13:39 | 61.02917 | -146.53334 | 10426 ft | 281 kts | 233° |
| 2026-04-16 13:39 | 61.01552 | -146.56473 | 10442 ft | 311 kts | 221° |
| 2026-04-16 13:39 | 60.99528 | -146.58468 | 10735 ft | 331 kts | 199° |
| 2026-04-16 13:39 | 60.97231 | -146.58988 | 11546 ft | 335 kts | 186° |
| 2026-04-16 13:40 | 60.94877 | -146.59011 | 12234 ft | 341 kts | 184° |
| 2026-04-16 13:40 | 60.92494 | -146.58986 | 12921 ft | 344 kts | 185° |
| 2026-04-16 13:40 | 60.90120 | -146.59043 | 13558 ft | 347 kts | 186° |
| 2026-04-16 13:40 | 60.87701 | -146.59129 | 14100 ft | 351 kts | 186° |
| 2026-04-16 13:41 | 60.85239 | -146.59158 | 14661 ft | 355 kts | 185° |
| 2026-04-16 13:41 | 60.82760 | -146.59190 | 15245 ft | 357 kts | 186° |
| 2026-04-16 13:41 | 60.80266 | -146.59279 | 15844 ft | 360 kts | 187° |
| 2026-04-16 13:41 | 60.77755 | -146.59340 | 16504 ft | 361 kts | 186° |
| 2026-04-16 13:42 | 60.75231 | -146.59372 | 17121 ft | 365 kts | 186° |
| 2026-04-16 13:42 | 60.72679 | -146.59415 | 17630 ft | 369 kts | 187° |
| 2026-04-16 13:42 | 60.70148 | -146.59494 | 18310 ft | 370 kts | 187° |
| 2026-04-16 13:42 | 60.67562 | -146.59540 | 18847 ft | 374 kts | 187° |
| 2026-04-16 13:43 | 60.64954 | -146.59574 | 19416 ft | 376 kts | 187° |
| 2026-04-16 13:43 | 60.62328 | -146.59631 | 19987 ft | 379 kts | 188° |
| 2026-04-16 13:43 | 60.59667 | -146.59402 | 20507 ft | 390 kts | 180° |
| 2026-04-16 13:43 | 60.56982 | -146.58238 | 21086 ft | 400 kts | 171° |
| 2026-04-16 13:44 | 60.54347 | -146.56162 | 21630 ft | 413 kts | 162° |
| 2026-04-16 13:44 | 60.51840 | -146.53138 | 22167 ft | 426 kts | 152° |
| 2026-04-16 13:44 | 60.49582 | -146.49225 | 22694 ft | 439 kts | 141° |
| 2026-04-16 13:44 | 60.47612 | -146.44371 | 23201 ft | 453 kts | 130° |
| 2026-04-16 13:45 | 60.46065 | -146.38731 | 23616 ft | 466 kts | 118° |
| 2026-04-16 13:45 | 60.45039 | -146.32425 | 24015 ft | 476 kts | 107° |
| 2026-04-16 13:45 | 60.44302 | -146.25860 | 24441 ft | 480 kts | 106° |
| 2026-04-16 13:45 | 60.43565 | -146.19245 | 24859 ft | 484 kts | 106° |
| 2026-04-16 13:46 | 60.42806 | -146.12575 | 25277 ft | 488 kts | 107° |
| 2026-04-16 13:46 | 60.42036 | -146.05862 | 25696 ft | 492 kts | 107° |
| 2026-04-16 13:46 | 60.41272 | -145.99178 | 26101 ft | 496 kts | 107° |
| 2026-04-16 13:46 | 60.40490 | -145.92354 | 26528 ft | 500 kts | 107° |
| 2026-04-16 13:47 | 60.39695 | -145.85481 | 26952 ft | 504 kts | 107° |
| 2026-04-16 13:47 | 60.38888 | -145.78556 | 27368 ft | 508 kts | 107° |
| 2026-04-16 13:47 | 60.38072 | -145.71572 | 27748 ft | 513 kts | 107° |
| 2026-04-16 13:47 | 60.37246 | -145.64523 | 28122 ft | 518 kts | 107° |
| 2026-04-16 13:48 | 60.36409 | -145.57426 | 28571 ft | 521 kts | 107° |
| 2026-04-16 13:48 | 60.35561 | -145.50275 | 28985 ft | 526 kts | 107° |
| 2026-04-16 13:48 | 60.34713 | -145.43168 | 29392 ft | 530 kts | 107° |
| 2026-04-16 13:48 | 60.33846 | -145.35923 | 29803 ft | 534 kts | 108° |
| 2026-04-16 13:49 | 60.32966 | -145.28612 | 30187 ft | 538 kts | 108° |
| 2026-04-16 13:49 | 60.32076 | -145.21262 | 30567 ft | 540 kts | 108° |
| 2026-04-16 13:49 | 60.31181 | -145.13896 | 30974 ft | 542 kts | 108° |
| 2026-04-16 13:49 | 60.30276 | -145.06497 | 31364 ft | 544 kts | 108° |
| 2026-04-16 13:50 | 60.29364 | -144.99076 | 31686 ft | 547 kts | 107° |
| 2026-04-16 13:50 | 60.28443 | -144.91623 | 32065 ft | 549 kts | 107° |
| 2026-04-16 13:50 | 60.27527 | -144.84242 | 32436 ft | 551 kts | 107° |
| 2026-04-16 13:50 | 60.26591 | -144.76737 | 32835 ft | 554 kts | 107° |
| 2026-04-16 13:51 | 60.25645 | -144.69199 | 33143 ft | 558 kts | 107° |
| 2026-04-16 13:51 | 60.24690 | -144.61620 | 33509 ft | 560 kts | 107° |
| 2026-04-16 13:51 | 60.23726 | -144.54003 | 33908 ft | 562 kts | 107° |
| 2026-04-16 13:51 | 60.22756 | -144.46385 | 34337 ft | 561 kts | 107° |
| 2026-04-16 13:52 | 60.21785 | -144.38807 | 34895 ft | 557 kts | 107° |
| 2026-04-16 13:52 | 60.20819 | -144.31281 | 35367 ft | 555 kts | 107° |
| 2026-04-16 13:52 | 60.19864 | -144.23875 | 35808 ft | 554 kts | 107° |
| 2026-04-16 13:52 | 60.18887 | -144.16415 | 36347 ft | 551 kts | 107° |
| 2026-04-16 13:53 | 60.17915 | -144.08992 | 36901 ft | 548 kts | 107° |
| 2026-04-16 13:53 | 60.16952 | -144.01613 | 37464 ft | 545 kts | 106° |
| 2026-04-16 13:53 | 60.15988 | -143.94281 | 38037 ft | 541 kts | 106° |
| 2026-04-16 13:53 | 60.15022 | -143.87007 | 38617 ft | 538 kts | 106° |
| 2026-04-16 13:54 | 60.14056 | -143.79766 | 39086 ft | 536 kts | 106° |
| 2026-04-16 13:54 | 60.13093 | -143.72549 | 39464 ft | 535 kts | 106° |
| 2026-04-16 13:54 | 60.12139 | -143.65441 | 39836 ft | 534 kts | 106° |
| 2026-04-16 13:54 | 60.11169 | -143.58257 | 40221 ft | 533 kts | 106° |
| 2026-04-16 13:55 | 60.10196 | -143.51087 | 40600 ft | 533 kts | 106° |
| 2026-04-16 13:55 | 60.09225 | -143.43952 | 40977 ft | 529 kts | 106° |
| 2026-04-16 13:55 | 60.08250 | -143.36821 | 41092 ft | 534 kts | 107° |
| 2026-04-16 13:56 | 60.06244 | -143.22273 | 41104 ft | 550 kts | 107° |
| 2026-04-16 13:56 | 60.04183 | -143.07436 | 41116 ft | 564 kts | 107° |
| 2026-04-16 13:57 | 60.02043 | -142.92187 | 41116 ft | 571 kts | 107° |
| 2026-04-16 13:57 | 59.99880 | -142.76911 | 41116 ft | 572 kts | 107° |
| 2026-04-16 13:58 | 59.96599 | -142.54031 | 41385 ft | 568 kts | 107° |
| 2026-04-16 13:58 | 59.95521 | -142.46584 | 41631 ft | 565 kts | 107° |
| 2026-04-16 13:58 | 59.94430 | -142.39078 | 41875 ft | 562 kts | 107° |
| 2026-04-16 13:59 | 59.93341 | -142.31618 | 42105 ft | 559 kts | 107° |
| 2026-04-16 13:59 | 59.92252 | -142.24194 | 42351 ft | 556 kts | 107° |
| 2026-04-16 13:59 | 59.91164 | -142.16809 | 42600 ft | 554 kts | 107° |
| 2026-04-16 13:59 | 59.90079 | -142.09482 | 42849 ft | 551 kts | 107° |
| 2026-04-16 14:00 | 59.88992 | -142.02170 | 43100 ft | 548 kts | 107° |
| 2026-04-16 14:00 | 59.87908 | -141.94908 | 43355 ft | 546 kts | 107° |
| 2026-04-16 14:00 | 59.86826 | -141.87688 | 43597 ft | 544 kts | 107° |
| 2026-04-16 14:00 | 59.85756 | -141.80584 | 43810 ft | 543 kts | 107° |
| 2026-04-16 14:01 | 59.84669 | -141.73396 | 44014 ft | 542 kts | 107° |
| 2026-04-16 14:01 | 59.83579 | -141.66218 | 44213 ft | 542 kts | 107° |
| 2026-04-16 14:01 | 59.82484 | -141.59035 | 44394 ft | 544 kts | 107° |
| 2026-04-16 14:01 | 59.81381 | -141.51838 | 44535 ft | 547 kts | 107° |
| 2026-04-16 14:02 | 59.80267 | -141.44595 | 44676 ft | 548 kts | 107° |
| 2026-04-16 14:02 | 59.79149 | -141.37352 | 44816 ft | 548 kts | 108° |
| 2026-04-16 14:02 | 59.78028 | -141.30122 | 44949 ft | 548 kts | 108° |
| 2026-04-16 14:02 | 59.76919 | -141.23002 | 45079 ft | 547 kts | 108° |
| 2026-04-16 14:03 | 59.74655 | -141.08561 | 45107 ft | 550 kts | 108° |
| 2026-04-16 14:03 | 59.72363 | -140.94055 | 45137 ft | 553 kts | 108° |
| 2026-04-16 14:04 | 59.70038 | -140.79468 | 45120 ft | 557 kts | 108° |
| 2026-04-16 14:04 | 59.67685 | -140.64826 | 45118 ft | 560 kts | 108° |
| 2026-04-16 14:05 | 59.65319 | -140.50225 | 45119 ft | 562 kts | 108° |
| 2026-04-16 14:05 | 59.62912 | -140.35488 | 45111 ft | 565 kts | 108° |
| 2026-04-16 14:06 | 59.60477 | -140.20708 | 45113 ft | 567 kts | 108° |
| 2026-04-16 14:06 | 59.58032 | -140.05991 | 45111 ft | 568 kts | 108° |
| 2026-04-16 14:07 | 59.55554 | -139.91193 | 45112 ft | 568 kts | 108° |
| 2026-04-16 14:07 | 59.53047 | -139.76413 | 45097 ft | 568 kts | 110° |
| 2026-04-16 14:08 | 59.49422 | -139.62634 | 45103 ft | 568 kts | 126° |
| 2026-04-16 14:08 | 59.44088 | -139.51307 | 45104 ft | 564 kts | 142° |
| 2026-04-16 14:09 | 59.37895 | -139.42084 | 45126 ft | 562 kts | 146° |
| 2026-04-16 14:09 | 59.31771 | -139.32503 | 45108 ft | 565 kts | 140° |
| 2026-04-16 14:10 | 59.25989 | -139.22084 | 45117 ft | 565 kts | 141° |
| 2026-04-16 14:10 | 59.19902 | -139.12401 | 45120 ft | 564 kts | 142° |
| 2026-04-16 14:11 | 59.14044 | -139.02348 | 45120 ft | 565 kts | 141° |
| 2026-04-16 14:11 | 59.08014 | -138.92564 | 45123 ft | 564 kts | 142° |
| 2026-04-16 14:12 | 59.02044 | -138.82629 | 45127 ft | 565 kts | 141° |
| 2026-04-16 14:12 | 58.96029 | -138.72821 | 45129 ft | 565 kts | 142° |
| 2026-04-16 14:13 | 58.90064 | -138.63078 | 45125 ft | 565 kts | 141° |
| 2026-04-16 14:13 | 58.84048 | -138.53307 | 45115 ft | 564 kts | 141° |
| 2026-04-16 14:14 | 58.78040 | -138.43611 | 45133 ft | 563 kts | 141° |
| 2026-04-16 14:14 | 58.72020 | -138.33916 | 45131 ft | 564 kts | 142° |
| 2026-04-16 14:15 | 58.66025 | -138.24331 | 45129 ft | 564 kts | 142° |
| 2026-04-16 14:15 | 58.59988 | -138.14702 | 45131 ft | 564 kts | 142° |
| 2026-04-16 14:16 | 58.53941 | -138.05118 | 45137 ft | 564 kts | 142° |
| 2026-04-16 14:16 | 58.47888 | -137.95558 | 45137 ft | 564 kts | 142° |
| 2026-04-16 14:17 | 58.41870 | -137.86103 | 45140 ft | 564 kts | 142° |
| 2026-04-16 14:17 | 58.35808 | -137.76620 | 45133 ft | 563 kts | 142° |
| 2026-04-16 14:18 | 58.29742 | -137.67175 | 45128 ft | 563 kts | 142° |
| 2026-04-16 14:18 | 58.23668 | -137.57759 | 45128 ft | 563 kts | 142° |
| 2026-04-16 14:19 | 58.17628 | -137.48441 | 45130 ft | 563 kts | 142° |
| 2026-04-16 14:19 | 58.11538 | -137.39086 | 45131 ft | 564 kts | 142° |
| 2026-04-16 14:20 | 58.05438 | -137.29760 | 45135 ft | 564 kts | 142° |
| 2026-04-16 14:20 | 57.99329 | -137.20460 | 45138 ft | 564 kts | 142° |
| 2026-04-16 14:21 | 57.93258 | -137.11261 | 45138 ft | 564 kts | 143° |
| 2026-04-16 14:21 | 57.87134 | -137.02024 | 45138 ft | 565 kts | 143° |
| 2026-04-16 14:22 | 57.80997 | -136.92806 | 45138 ft | 565 kts | 143° |
| 2026-04-16 14:22 | 57.74851 | -136.83619 | 45138 ft | 565 kts | 143° |
| 2026-04-16 14:23 | 57.68740 | -136.74525 | 45137 ft | 565 kts | 143° |
| 2026-04-16 14:23 | 57.62584 | -136.65402 | 45136 ft | 565 kts | 143° |
| 2026-04-16 14:24 | 57.56415 | -136.56303 | 45136 ft | 565 kts | 143° |
| 2026-04-16 14:24 | 57.50253 | -136.47252 | 45134 ft | 565 kts | 143° |
| 2026-04-16 14:25 | 57.44072 | -136.38215 | 45143 ft | 565 kts | 143° |
| 2026-04-16 14:25 | 57.37925 | -136.29268 | 45144 ft | 565 kts | 143° |
| 2026-04-16 14:26 | 57.31735 | -136.20296 | 45143 ft | 565 kts | 143° |
| 2026-04-16 14:26 | 57.25534 | -136.11349 | 45149 ft | 565 kts | 143° |
| 2026-04-16 14:27 | 57.19330 | -136.02438 | 45149 ft | 565 kts | 143° |
| 2026-04-16 14:27 | 57.13165 | -135.93618 | 45152 ft | 565 kts | 143° |
| 2026-04-16 14:28 | 57.06955 | -135.84774 | 45157 ft | 565 kts | 143° |
| 2026-04-16 14:28 | 57.00736 | -135.75956 | 45155 ft | 564 kts | 143° |
| 2026-04-16 14:29 | 56.94511 | -135.67167 | 45160 ft | 565 kts | 143° |
| 2026-04-16 14:29 | 56.88317 | -135.58460 | 45163 ft | 565 kts | 144° |
| 2026-04-16 14:30 | 56.81857 | -135.50321 | 45171 ft | 564 kts | 150° |
| 2026-04-16 14:30 | 56.75188 | -135.42821 | 45183 ft | 564 kts | 149° |
| 2026-04-16 14:31 | 56.68580 | -135.35130 | 45187 ft | 563 kts | 149° |
| 2026-04-16 14:31 | 56.61970 | -135.27676 | 45181 ft | 563 kts | 149° |
| 2026-04-16 14:32 | 56.55340 | -135.20093 | 45186 ft | 563 kts | 149° |
| 2026-04-16 14:32 | 56.48691 | -135.12606 | 45181 ft | 563 kts | 150° |
| 2026-04-16 14:33 | 56.42052 | -135.05111 | 45184 ft | 563 kts | 149° |
| 2026-04-16 14:33 | 56.35444 | -134.97711 | 45188 ft | 562 kts | 150° |
| 2026-04-16 14:34 | 56.28795 | -134.90279 | 45182 ft | 562 kts | 150° |
| 2026-04-16 14:34 | 56.22141 | -134.82881 | 45183 ft | 562 kts | 150° |
| 2026-04-16 14:35 | 56.15480 | -134.75501 | 45193 ft | 563 kts | 150° |
| 2026-04-16 14:35 | 56.08817 | -134.68153 | 45188 ft | 562 kts | 150° |
| 2026-04-16 14:36 | 56.02192 | -134.60875 | 45190 ft | 562 kts | 150° |
| 2026-04-16 14:36 | 55.95521 | -134.53576 | 45195 ft | 563 kts | 150° |
| 2026-04-16 14:37 | 55.88844 | -134.46301 | 45193 ft | 563 kts | 150° |
| 2026-04-16 14:37 | 55.82158 | -134.39046 | 45195 ft | 562 kts | 150° |
| 2026-04-16 14:38 | 55.75518 | -134.31870 | 45200 ft | 563 kts | 150° |
| 2026-04-16 14:38 | 55.68814 | -134.24653 | 45201 ft | 564 kts | 150° |
| 2026-04-16 14:39 | 55.62105 | -134.17461 | 45201 ft | 564 kts | 150° |
| 2026-04-16 14:39 | 55.55392 | -134.10293 | 45205 ft | 564 kts | 150° |
| 2026-04-16 14:40 | 55.48715 | -134.03194 | 45203 ft | 565 kts | 150° |
| 2026-04-16 14:40 | 55.41978 | -133.96058 | 45207 ft | 565 kts | 150° |
| 2026-04-16 14:41 | 55.35237 | -133.88946 | 45207 ft | 565 kts | 151° |
| 2026-04-16 14:41 | 55.28492 | -133.81860 | 45209 ft | 565 kts | 151° |
| 2026-04-16 14:42 | 55.21781 | -133.74837 | 45222 ft | 565 kts | 151° |
| 2026-04-16 14:42 | 55.15027 | -133.67797 | 45223 ft | 565 kts | 151° |
| 2026-04-16 14:43 | 55.08271 | -133.60783 | 45228 ft | 565 kts | 151° |
| 2026-04-16 14:43 | 55.01510 | -133.53792 | 45218 ft | 565 kts | 151° |
| 2026-04-16 14:44 | 54.94783 | -133.46864 | 45224 ft | 565 kts | 151° |
| 2026-04-16 14:44 | 54.88009 | -133.39914 | 45227 ft | 565 kts | 151° |
| 2026-04-16 14:45 | 54.81228 | -133.32985 | 45229 ft | 565 kts | 151° |
| 2026-04-16 14:45 | 54.74448 | -133.26084 | 45227 ft | 565 kts | 151° |
| 2026-04-16 14:46 | 54.67708 | -133.19250 | 45236 ft | 565 kts | 151° |
| 2026-04-16 14:46 | 54.60920 | -133.12394 | 45236 ft | 565 kts | 151° |
| 2026-04-16 14:47 | 54.54125 | -133.05559 | 45233 ft | 566 kts | 151° |
| 2026-04-16 14:47 | 54.47326 | -132.98746 | 45241 ft | 565 kts | 151° |
| 2026-04-16 14:48 | 54.40518 | -132.91951 | 45247 ft | 566 kts | 151° |
| 2026-04-16 14:48 | 54.33755 | -132.85225 | 45248 ft | 566 kts | 151° |
| 2026-04-16 14:49 | 54.27002 | -132.78537 | 45242 ft | 566 kts | 151° |
| 2026-04-16 14:49 | 54.20192 | -132.71816 | 45244 ft | 566 kts | 151° |
| 2026-04-16 14:50 | 54.13370 | -132.65112 | 45254 ft | 566 kts | 152° |
| 2026-04-16 14:50 | 54.06592 | -132.58474 | 45252 ft | 566 kts | 152° |
| 2026-04-16 14:51 | 53.99753 | -132.51803 | 45256 ft | 567 kts | 152° |
| 2026-04-16 14:51 | 53.92908 | -132.45151 | 45256 ft | 567 kts | 152° |
| 2026-04-16 14:53 | 53.65563 | -132.18831 | 45265 ft | 565 kts | 152° |
| 2026-04-16 14:54 | 53.58718 | -132.12304 | 45260 ft | 566 kts | 152° |
| 2026-04-16 14:54 | 53.51851 | -132.05780 | 45261 ft | 567 kts | 152° |
| 2026-04-16 14:55 | 53.45029 | -131.99325 | 45261 ft | 567 kts | 152° |
| 2026-04-16 14:55 | 53.38156 | -131.92845 | 45263 ft | 567 kts | 152° |
| 2026-04-16 14:56 | 53.31268 | -131.86375 | 45269 ft | 569 kts | 152° |
| 2026-04-16 14:56 | 53.24607 | -131.79243 | 45256 ft | 571 kts | 141° |
| 2026-04-16 14:57 | 53.19123 | -131.69792 | 45268 ft | 572 kts | 130° |
| 2026-04-16 14:57 | 53.14128 | -131.59481 | 45277 ft | 571 kts | 130° |
| 2026-04-16 14:58 | 53.06077 | -131.44878 | 45282 ft | 571 kts | 130° |
| 2026-04-16 14:59 | 53.00889 | -131.34892 | 45287 ft | 571 kts | 132° |
| 2026-04-16 14:59 | 52.95559 | -131.25249 | 45287 ft | 570 kts | 131° |
| 2026-04-16 15:00 | 52.90329 | -131.15391 | 45285 ft | 570 kts | 131° |
| 2026-04-16 15:00 | 52.84991 | -131.05687 | 45285 ft | 570 kts | 131° |
| 2026-04-16 15:01 | 52.79708 | -130.95911 | 45291 ft | 570 kts | 131° |
| 2026-04-16 15:01 | 52.74420 | -130.86300 | 45290 ft | 569 kts | 132° |
| 2026-04-16 15:02 | 52.69110 | -130.76604 | 45292 ft | 569 kts | 131° |
| 2026-04-16 15:02 | 52.63778 | -130.66953 | 45290 ft | 569 kts | 132° |
| 2026-04-16 15:03 | 52.58444 | -130.57310 | 45289 ft | 571 kts | 132° |
| 2026-04-16 15:03 | 52.53089 | -130.47681 | 45289 ft | 570 kts | 132° |
| 2026-04-16 15:04 | 52.47767 | -130.38141 | 45283 ft | 570 kts | 132° |
| 2026-04-16 15:04 | 52.42401 | -130.28563 | 45280 ft | 571 kts | 132° |
| 2026-04-16 15:05 | 52.37020 | -130.18994 | 45282 ft | 571 kts | 132° |
| 2026-04-16 15:05 | 52.31627 | -130.09440 | 45282 ft | 571 kts | 132° |
| 2026-04-16 15:06 | 52.26265 | -129.99981 | 45285 ft | 571 kts | 132° |
| 2026-04-16 15:06 | 52.20856 | -129.90472 | 45288 ft | 572 kts | 132° |
| 2026-04-16 15:07 | 52.15443 | -129.80993 | 45286 ft | 572 kts | 132° |
| 2026-04-16 15:07 | 52.10018 | -129.71529 | 45286 ft | 572 kts | 132° |
| 2026-04-16 15:08 | 52.04582 | -129.62084 | 45282 ft | 573 kts | 132° |
| 2026-04-16 15:08 | 51.99162 | -129.52702 | 45281 ft | 573 kts | 132° |
| 2026-04-16 15:09 | 51.93696 | -129.43276 | 45285 ft | 574 kts | 133° |
| 2026-04-16 15:09 | 51.88224 | -129.33874 | 45286 ft | 574 kts | 133° |
| 2026-04-16 15:10 | 51.82779 | -129.24556 | 45286 ft | 574 kts | 133° |
| 2026-04-16 15:10 | 51.77294 | -129.15204 | 45285 ft | 574 kts | 133° |
| 2026-04-16 15:11 | 51.71795 | -129.05865 | 45285 ft | 574 kts | 133° |
| 2026-04-16 15:11 | 51.66288 | -128.96545 | 45286 ft | 575 kts | 133° |
| 2026-04-16 15:12 | 51.60770 | -128.87244 | 45286 ft | 575 kts | 133° |
| 2026-04-16 15:12 | 51.55276 | -128.78017 | 45286 ft | 575 kts | 133° |
| 2026-04-16 15:13 | 51.49740 | -128.68755 | 45284 ft | 574 kts | 133° |
| 2026-04-16 15:13 | 51.44203 | -128.59522 | 45284 ft | 574 kts | 133° |
| 2026-04-16 15:14 | 51.38657 | -128.50313 | 45277 ft | 574 kts | 133° |
| 2026-04-16 15:14 | 51.33140 | -128.41184 | 45278 ft | 574 kts | 133° |
| 2026-04-16 15:15 | 51.27592 | -128.32040 | 45281 ft | 573 kts | 133° |
| 2026-04-16 15:15 | 51.22037 | -128.22914 | 45283 ft | 573 kts | 133° |
| 2026-04-16 15:16 | 51.16472 | -128.13810 | 45279 ft | 573 kts | 133° |
| 2026-04-16 15:16 | 51.10948 | -128.04804 | 45280 ft | 572 kts | 133° |
| 2026-04-16 15:17 | 51.05377 | -127.95753 | 45280 ft | 572 kts | 133° |
| 2026-04-16 15:17 | 50.99799 | -127.86726 | 45271 ft | 572 kts | 133° |
| 2026-04-16 15:18 | 50.94220 | -127.77729 | 45265 ft | 572 kts | 133° |
| 2026-04-16 15:18 | 50.88670 | -127.68810 | 45261 ft | 572 kts | 133° |
| 2026-04-16 15:19 | 50.83076 | -127.59857 | 45268 ft | 572 kts | 133° |
| 2026-04-16 15:19 | 50.77473 | -127.50917 | 45263 ft | 574 kts | 133° |
| 2026-04-16 15:20 | 50.71850 | -127.41980 | 45270 ft | 574 kts | 133° |
| 2026-04-16 15:20 | 50.66514 | -127.32659 | 45266 ft | 571 kts | 125° |
| 2026-04-16 15:21 | 50.61925 | -127.22547 | 45271 ft | 572 kts | 123° |
| 2026-04-16 15:21 | 50.57118 | -127.12537 | 45270 ft | 573 kts | 125° |
| 2026-04-16 15:22 | 50.52392 | -127.02441 | 45264 ft | 573 kts | 124° |
| 2026-04-16 15:22 | 50.47645 | -126.92477 | 45265 ft | 573 kts | 125° |
| 2026-04-16 15:23 | 50.42872 | -126.82459 | 45264 ft | 573 kts | 124° |
| 2026-04-16 15:23 | 50.38099 | -126.72458 | 45268 ft | 573 kts | 125° |
| 2026-04-16 15:24 | 50.33299 | -126.62487 | 45270 ft | 573 kts | 124° |
| 2026-04-16 15:24 | 50.28509 | -126.52520 | 45270 ft | 573 kts | 125° |
| 2026-04-16 15:25 | 50.23727 | -126.42657 | 45269 ft | 573 kts | 125° |
| 2026-04-16 15:25 | 50.18916 | -126.32731 | 45267 ft | 573 kts | 125° |
| 2026-04-16 15:26 | 50.14083 | -126.22829 | 45263 ft | 573 kts | 125° |
| 2026-04-16 15:26 | 50.09262 | -126.12965 | 45243 ft | 571 kts | 125° |
| 2026-04-16 15:27 | 50.04462 | -126.03196 | 45246 ft | 572 kts | 125° |
| 2026-04-16 15:27 | 49.99622 | -125.93374 | 45244 ft | 572 kts | 125° |
| 2026-04-16 15:28 | 49.94768 | -125.83561 | 45246 ft | 573 kts | 125° |
| 2026-04-16 15:28 | 49.89907 | -125.73773 | 45245 ft | 573 kts | 125° |
| 2026-04-16 15:29 | 49.85070 | -125.64067 | 45233 ft | 573 kts | 125° |
| 2026-04-16 15:29 | 49.80193 | -125.54317 | 45235 ft | 572 kts | 125° |
| 2026-04-16 15:30 | 49.75317 | -125.44608 | 45235 ft | 571 kts | 125° |
| 2026-04-16 15:30 | 49.70432 | -125.34910 | 45241 ft | 572 kts | 125° |
| 2026-04-16 15:31 | 49.65566 | -125.25293 | 45251 ft | 571 kts | 126° |
| 2026-04-16 15:31 | 49.60679 | -125.15665 | 45252 ft | 570 kts | 126° |
| 2026-04-16 15:32 | 49.55779 | -125.06056 | 45246 ft | 570 kts | 126° |
| 2026-04-16 15:32 | 49.50864 | -124.96478 | 45246 ft | 570 kts | 126° |
| 2026-04-16 15:33 | 49.45988 | -124.86990 | 45241 ft | 569 kts | 126° |
| 2026-04-16 15:33 | 49.41069 | -124.77466 | 45248 ft | 569 kts | 126° |
| 2026-04-16 15:34 | 49.36145 | -124.67960 | 45240 ft | 569 kts | 126° |
| 2026-04-16 15:34 | 49.31212 | -124.58474 | 45245 ft | 568 kts | 126° |
| 2026-04-16 15:35 | 49.26278 | -124.49017 | 45217 ft | 569 kts | 126° |
| 2026-04-16 15:35 | 49.21367 | -124.39640 | 45231 ft | 569 kts | 127° |
| 2026-04-16 15:36 | 49.16411 | -124.30210 | 45238 ft | 568 kts | 127° |
| 2026-04-16 15:36 | 49.11458 | -124.20819 | 45240 ft | 568 kts | 127° |
| 2026-04-16 15:37 | 49.06501 | -124.11453 | 45235 ft | 567 kts | 127° |
| 2026-04-16 15:37 | 49.01571 | -124.02165 | 45250 ft | 567 kts | 127° |
| 2026-04-16 15:38 | 48.96598 | -123.92835 | 45250 ft | 567 kts | 127° |
| 2026-04-16 15:38 | 48.91619 | -123.83524 | 45247 ft | 567 kts | 127° |
| 2026-04-16 15:39 | 48.86633 | -123.74232 | 45241 ft | 568 kts | 127° |
| 2026-04-16 15:39 | 48.81665 | -123.65005 | 45249 ft | 569 kts | 127° |
| 2026-04-16 15:40 | 48.76647 | -123.55720 | 45255 ft | 569 kts | 128° |
| 2026-04-16 15:40 | 48.71954 | -123.46104 | 45243 ft | 566 kts | 117° |
| 2026-04-16 15:41 | 48.68650 | -123.35352 | 45267 ft | 564 kts | 109° |
| 2026-04-16 15:41 | 48.65414 | -123.24605 | 45262 ft | 566 kts | 114° |
| 2026-04-16 15:42 | 48.62002 | -123.13900 | 45263 ft | 565 kts | 111° |
| 2026-04-16 15:42 | 48.58732 | -123.03114 | 45269 ft | 565 kts | 113° |
| 2026-04-16 15:43 | 48.55313 | -122.92417 | 45292 ft | 565 kts | 112° |
| 2026-04-16 15:43 | 48.51998 | -122.81676 | 45260 ft | 565 kts | 113° |
| 2026-04-16 15:44 | 48.48615 | -122.71077 | 45250 ft | 565 kts | 113° |
| 2026-04-16 15:44 | 48.45255 | -122.60377 | 45252 ft | 565 kts | 113° |
| 2026-04-16 15:45 | 48.41850 | -122.49730 | 45265 ft | 564 kts | 113° |
| 2026-04-16 15:45 | 48.38462 | -122.39086 | 45264 ft | 564 kts | 113° |
| 2026-04-16 15:46 | 48.35048 | -122.28462 | 45243 ft | 564 kts | 113° |
| 2026-04-16 15:46 | 48.31660 | -122.17929 | 45261 ft | 564 kts | 113° |
| 2026-04-16 15:47 | 48.28247 | -122.07383 | 44853 ft | 557 kts | 113° |
| 2026-04-16 15:47 | 48.26552 | -122.02167 | 44091 ft | 554 kts | 113° |
| 2026-04-16 15:47 | 48.24872 | -121.96994 | 43361 ft | 550 kts | 113° |
| 2026-04-16 15:47 | 48.23193 | -121.91830 | 42642 ft | 551 kts | 113° |
| 2026-04-16 15:48 | 48.21529 | -121.86730 | 41867 ft | 552 kts | 113° |
| 2026-04-16 15:48 | 48.19812 | -121.81487 | 41125 ft | 554 kts | 113° |
| 2026-04-16 15:48 | 48.18138 | -121.76380 | 40423 ft | 554 kts | 113° |
| 2026-04-16 15:48 | 48.16436 | -121.71196 | 39693 ft | 555 kts | 113° |
| 2026-04-16 15:49 | 48.14729 | -121.66005 | 38963 ft | 557 kts | 113° |
| 2026-04-16 15:49 | 48.13013 | -121.60804 | 38159 ft | 557 kts | 112° |
| 2026-04-16 15:49 | 48.11294 | -121.55604 | 37434 ft | 558 kts | 112° |
| 2026-04-16 15:49 | 48.09572 | -121.50399 | 36716 ft | 558 kts | 112° |
| 2026-04-16 15:50 | 48.07847 | -121.45198 | 35990 ft | 558 kts | 112° |
| 2026-04-16 15:50 | 48.06115 | -121.39986 | 35269 ft | 560 kts | 112° |
| 2026-04-16 15:50 | 48.04403 | -121.34851 | 34526 ft | 560 kts | 112° |
| 2026-04-16 15:50 | 48.02665 | -121.29648 | 33747 ft | 559 kts | 111° |
| 2026-04-16 15:51 | 48.00928 | -121.24450 | 33004 ft | 560 kts | 111° |
| 2026-04-16 15:51 | 47.99187 | -121.19251 | 32297 ft | 558 kts | 111° |
| 2026-04-16 15:51 | 47.97454 | -121.14096 | 31537 ft | 555 kts | 111° |
| 2026-04-16 15:51 | 47.95718 | -121.08940 | 30798 ft | 556 kts | 111° |
| 2026-04-16 15:52 | 47.93997 | -121.03840 | 30022 ft | 546 kts | 111° |
| 2026-04-16 15:52 | 47.92305 | -120.98835 | 29294 ft | 536 kts | 111° |
| 2026-04-16 15:52 | 47.90646 | -120.93932 | 28592 ft | 525 kts | 111° |
| 2026-04-16 15:52 | 47.89038 | -120.89181 | 27914 ft | 517 kts | 111° |
| 2026-04-16 15:53 | 47.87431 | -120.84450 | 27226 ft | 508 kts | 111° |
| 2026-04-16 15:53 | 47.85847 | -120.79799 | 26576 ft | 499 kts | 112° |
| 2026-04-16 15:53 | 47.84290 | -120.75237 | 25901 ft | 490 kts | 112° |
| 2026-04-16 15:53 | 47.82763 | -120.70765 | 25258 ft | 482 kts | 112° |
| 2026-04-16 15:54 | 47.81261 | -120.66372 | 24631 ft | 472 kts | 112° |
| 2026-04-16 15:54 | 47.79780 | -120.62051 | 24023 ft | 465 kts | 112° |
| 2026-04-16 15:54 | 47.78325 | -120.57811 | 23358 ft | 457 kts | 112° |
| 2026-04-16 15:54 | 47.76902 | -120.53665 | 22734 ft | 455 kts | 112° |
| 2026-04-16 15:55 | 47.75469 | -120.49502 | 22138 ft | 450 kts | 112° |
| 2026-04-16 15:55 | 47.74046 | -120.45381 | 21538 ft | 446 kts | 112° |
| 2026-04-16 15:55 | 47.72638 | -120.41303 | 20972 ft | 444 kts | 112° |
| 2026-04-16 15:55 | 47.71235 | -120.37247 | 20371 ft | 440 kts | 113° |
| 2026-04-16 15:56 | 47.69843 | -120.33229 | 19797 ft | 436 kts | 113° |
| 2026-04-16 15:56 | 47.68462 | -120.29255 | 19221 ft | 432 kts | 114° |
| 2026-04-16 15:56 | 47.67092 | -120.25312 | 18669 ft | 430 kts | 114° |
| 2026-04-16 15:56 | 47.65723 | -120.21373 | 18028 ft | 428 kts | 114° |
| 2026-04-16 15:57 | 47.64378 | -120.17514 | 17455 ft | 426 kts | 114° |
| 2026-04-16 15:57 | 47.63018 | -120.13620 | 16913 ft | 424 kts | 114° |
| 2026-04-16 15:57 | 47.61664 | -120.09750 | 16345 ft | 422 kts | 115° |
| 2026-04-16 15:57 | 47.60315 | -120.05896 | 15790 ft | 420 kts | 115° |
| 2026-04-16 15:58 | 47.58971 | -120.02061 | 15239 ft | 418 kts | 115° |
| 2026-04-16 15:58 | 47.57632 | -119.98248 | 14687 ft | 417 kts | 115° |
| 2026-04-16 15:58 | 47.56296 | -119.94451 | 14138 ft | 415 kts | 115° |
| 2026-04-16 15:58 | 47.54968 | -119.90678 | 13565 ft | 412 kts | 115° |
| 2026-04-16 15:59 | 47.52360 | -119.83292 | 12484 ft | 394 kts | 115° |
| 2026-04-16 15:59 | 47.51137 | -119.79852 | 11988 ft | 362 kts | 116° |
| 2026-04-16 15:59 | 47.50008 | -119.76671 | 11532 ft | 337 kts | 115° |
| 2026-04-16 16:00 | 47.48957 | -119.73697 | 11099 ft | 317 kts | 115° |
| 2026-04-16 16:00 | 47.47960 | -119.70881 | 10697 ft | 304 kts | 115° |
| 2026-04-16 16:00 | 47.46987 | -119.68142 | 10314 ft | 299 kts | 115° |
| 2026-04-16 16:00 | 47.46349 | -119.66346 | 10048 ft | 297 kts | 115° |
| 2026-04-16 16:01 | 47.45071 | -119.62756 | 9522 ft | 293 kts | 115° |
| 2026-04-16 16:01 | 47.44139 | -119.60145 | 9141 ft | 290 kts | 115° |
| 2026-04-16 16:01 | 47.43208 | -119.57535 | 8764 ft | 285 kts | 116° |
| 2026-04-16 16:01 | 47.42282 | -119.54941 | 8388 ft | 285 kts | 116° |
| 2026-04-16 16:02 | 47.41360 | -119.52362 | 8013 ft | 283 kts | 116° |
| 2026-04-16 16:02 | 47.40443 | -119.49798 | 7634 ft | 281 kts | 116° |
| 2026-04-16 16:02 | 47.39840 | -119.48113 | 7390 ft | 280 kts | 116° |
| 2026-04-16 16:02 | 47.38930 | -119.45574 | 7022 ft | 279 kts | 116° |
| 2026-04-16 16:03 | 47.38104 | -119.43018 | 6619 ft | 274 kts | 106° |
| 2026-04-16 16:03 | 47.38081 | -119.39495 | 6150 ft | 245 kts | 79° |
| 2026-04-16 16:03 | 47.38337 | -119.37117 | 5853 ft | 229 kts | 77° |
| 2026-04-16 16:03 | 47.38584 | -119.34822 | 5554 ft | 225 kts | 77° |
| 2026-04-16 16:04 | 47.38740 | -119.33318 | 5368 ft | 223 kts | 77° |
| 2026-04-16 16:04 | 47.38972 | -119.31061 | 5082 ft | 222 kts | 77° |
| 2026-04-16 16:04 | 47.39203 | -119.28815 | 4786 ft | 221 kts | 76° |
| 2026-04-16 16:04 | 47.39435 | -119.26576 | 4509 ft | 222 kts | 77° |
| 2026-04-16 16:05 | 47.39667 | -119.24329 | 4218 ft | 222 kts | 77° |
| 2026-04-16 16:05 | 47.39864 | -119.21332 | 4080 ft | 224 kts | 88° |
| 2026-04-16 16:05 | 47.39609 | -119.19047 | 4078 ft | 227 kts | 102° |
| 2026-04-16 16:05 | 47.39029 | -119.17031 | 4073 ft | 200 kts | 116° |
| 2026-04-16 16:06 | 47.38532 | -119.15917 | 4072 ft | 195 kts | 124° |
| 2026-04-16 16:06 | 47.37608 | -119.14464 | 4076 ft | 195 kts | 137° |
| 2026-04-16 16:06 | 47.36499 | -119.13323 | 4073 ft | 194 kts | 150° |
| 2026-04-16 16:06 | 47.35265 | -119.12552 | 4074 ft | 192 kts | 163° |
| 2026-04-16 16:07 | 47.33954 | -119.12171 | 4078 ft | 193 kts | 176° |
| 2026-04-16 16:07 | 47.32620 | -119.12194 | 3967 ft | 191 kts | 189° |
| 2026-04-16 16:07 | 47.31337 | -119.12610 | 3815 ft | 187 kts | 202° |
| 2026-04-16 16:07 | 47.30161 | -119.13378 | 3657 ft | 183 kts | 214° |
| 2026-04-16 16:08 | 47.29136 | -119.14442 | 3497 ft | 179 kts | 225° |
| 2026-04-16 16:08 | 47.28295 | -119.15725 | 3345 ft | 174 kts | 236° |
| 2026-04-16 16:08 | 47.27596 | -119.17165 | 3191 ft | 173 kts | 239° |
| 2026-04-16 16:08 | 47.26896 | -119.18589 | 3036 ft | 171 kts | 238° |
| 2026-04-16 16:09 | 47.26200 | -119.19996 | 2883 ft | 163 kts | 238° |
| 2026-04-16 16:09 | 47.25596 | -119.21214 | 2674 ft | 135 kts | 238° |
| 2026-04-16 16:09 | 47.25071 | -119.22288 | 2498 ft | 126 kts | 239° |
| 2026-04-16 16:09 | 47.24564 | -119.23330 | 2340 ft | 124 kts | 238° |
| 2026-04-16 16:10 | 47.24065 | -119.24350 | 2184 ft | 122 kts | 237° |
| 2026-04-16 16:10 | 47.23563 | -119.25374 | 2025 ft | 124 kts | 237° |
| 2026-04-16 16:10 | 47.23065 | -119.26381 | 1876 ft | 123 kts | 236° |
| 2026-04-16 16:10 | 47.22562 | -119.27409 | 1706 ft | 124 kts | 237° |
| 2026-04-16 16:11 | 47.22057 | -119.28442 | 1557 ft | 125 kts | 236° |
| 2026-04-16 16:11 | 47.21545 | -119.29486 | 1370 ft | 126 kts | 236° |
| 2026-04-16 16:11 | 47.21034 | -119.30529 | 1196 ft | 122 kts | 236° |
| 2026-04-16 16:11 | 47.20593 | -119.31429 | 1170 ft | 88 kts | 231° |
| 2026-04-16 16:12 | 47.20329 | -119.31955 | 1169 ft | 47 kts | 234° |
| 2026-04-16 16:12 | 47.20183 | -119.32250 | 1167 ft | 22 kts | 237° |
| 2026-04-16 16:12 | 47.20136 | -119.32285 | 1167 ft | 5 kts | 146° |
| 2026-04-16 16:12 | 47.20107 | -119.32256 | 1168 ft | 7 kts | 144° |
| 2026-04-16 16:13 | 47.20093 | -119.32240 | 1166 ft | 0 kts | 143° |